createdAt,value
2022-08-30T00:01:38.481Z,6.00
2022-08-30T00:06:41.832Z,6.35
2022-08-30T00:16:56.853Z,5.50
2022-08-30T00:22:00.118Z,6.30
2022-08-30T00:27:05.328Z,5.82
2022-08-30T00:32:33.464Z,5.75
2022-08-30T00:37:42.755Z,6.00
2022-08-30T00:42:50.535Z,5.82
2022-08-30T00:47:57.193Z,6.82
2022-08-30T00:58:38.094Z,7.35
2022-08-30T01:03:43.653Z,7.90
2022-08-30T01:08:49.076Z,8.63
2022-08-30T01:13:54.911Z,10.05
2022-08-30T01:24:07.730Z,12.63
2022-08-30T01:29:35.674Z,11.50
2022-08-30T01:34:41.938Z,11.75
2022-08-30T01:39:48.884Z,12.32
2022-08-30T01:44:54.175Z,11.77
2022-08-30T01:50:02.862Z,12.57
2022-08-30T01:55:06.684Z,11.32
2022-08-30T02:00:13.348Z,11.45
2022-08-30T02:05:16.706Z,12.15
2022-08-30T02:10:20.910Z,12.05
2022-08-30T02:15:29.738Z,10.55
2022-08-30T02:20:32.289Z,9.77
2022-08-30T02:25:34.904Z,8.97
2022-08-30T02:30:40.281Z,9.85
2022-08-30T02:35:49.964Z,10.25
2022-08-30T02:40:58.249Z,10.23
2022-08-30T02:46:09.692Z,10.15
2022-08-30T02:51:18.956Z,15.85
2022-08-30T02:56:52.049Z,16.35
2022-08-30T03:07:35.053Z,15.38
2022-08-30T03:12:45.933Z,14.38
2022-08-30T03:18:11.007Z,15.50
2022-08-30T03:23:21.888Z,15.45
2022-08-30T03:28:26.189Z,13.07
2022-08-30T03:33:29.634Z,12.38
2022-08-30T03:38:37.203Z,13.43
2022-08-30T03:44:00.032Z,15.15
2022-08-30T03:50:16.301Z,10.98
2022-08-30T04:01:22.518Z,12.98
2022-08-30T04:06:42.811Z,11.50
2022-08-30T04:17:21.056Z,12.82
2022-08-30T04:22:39.399Z,12.10
2022-08-30T04:28:13.063Z,15.18
2022-08-30T04:34:13.804Z,15.80
2022-08-30T04:39:32.996Z,15.02
2022-08-30T04:44:38.647Z,15.63
2022-08-30T04:49:55.083Z,14.25
2022-08-30T04:55:20.407Z,20.52
2022-08-30T05:00:25.404Z,25.67
2022-08-30T05:05:54.480Z,18.48
2022-08-30T05:11:04.993Z,17.90
2022-08-30T05:16:22.542Z,17.63
2022-08-30T05:21:43.706Z,17.92
2022-08-30T05:33:32.127Z,16.20
2022-08-30T05:44:41.173Z,17.67
2022-08-30T05:50:09.319Z,16.83
2022-08-30T05:55:30.636Z,13.98
2022-08-30T06:00:57.798Z,14.15
2022-08-30T06:06:20.078Z,13.30
2022-08-30T06:11:45.630Z,12.75
2022-08-30T06:17:18.322Z,15.90
2022-08-30T06:28:03.556Z,11.27
2022-08-30T06:33:38.496Z,6.45
2022-08-30T06:38:49.041Z,5.53
2022-08-30T06:43:55.225Z,4.47
2022-08-30T06:49:29.646Z,5.90
2022-08-30T06:54:50.274Z,5.75
2022-08-30T07:00:24.168Z,5.00
2022-08-30T07:05:54.168Z,4.05
2022-08-30T07:11:51.826Z,3.97
2022-08-30T07:23:10.536Z,5.30
2022-08-30T07:28:59.935Z,3.88
2022-08-30T07:40:01.086Z,3.08
2022-08-30T07:45:48.199Z,7.43
2022-08-30T07:50:56.296Z,3.40
2022-08-30T07:56:41.937Z,2.53
2022-08-30T08:01:56.324Z,2.70
2022-08-30T08:12:37.930Z,2.67
2022-08-30T08:18:03.218Z,1.90
2022-08-30T08:35:45.227Z,3.60
2022-08-30T08:41:25.943Z,5.18
2022-08-30T08:47:13.865Z,2.67
2022-08-30T08:52:46.826Z,1.45
2022-08-30T08:57:49.144Z,1.30
2022-08-30T09:02:59.638Z,8.48
2022-08-30T09:08:15.393Z,1.60
2022-08-30T09:13:29.783Z,5.22
2022-08-30T09:18:52.682Z,11.02
2022-08-30T09:24:00.595Z,4.45
2022-08-30T09:29:05.874Z,1.77
2022-08-30T09:34:09.875Z,2.70
2022-08-30T09:39:33.149Z,2.53
2022-08-30T09:44:40.483Z,1.92
2022-08-30T09:49:44.576Z,1.80
2022-08-30T09:55:14.528Z,1.00
2022-08-30T10:00:24.681Z,1.23
2022-08-30T10:06:05.145Z,1.45
2022-08-30T10:17:02.937Z,1.38
2022-08-30T10:22:26.173Z,1.42
2022-08-30T10:28:14.850Z,1.08
2022-08-30T10:33:32.056Z,1.20
2022-08-30T10:38:40.867Z,1.05
2022-08-30T10:44:08.271Z,1.38
2022-08-30T10:49:50.207Z,0.98
2022-08-30T10:55:39.287Z,1.17
2022-08-30T11:02:11.810Z,0.90
2022-08-30T11:13:27.842Z,1.10
2022-08-30T11:19:50.823Z,0.80
2022-08-30T11:25:22.533Z,0.88
2022-08-30T11:30:37.841Z,0.90
2022-08-30T11:36:25.577Z,1.80
2022-08-30T11:41:57.904Z,0.88
2022-08-30T11:47:54.351Z,1.27
2022-08-30T12:00:18.188Z,0.80
2022-08-30T12:05:52.037Z,1.00
2022-08-30T12:11:01.701Z,2.85
2022-08-30T12:16:13.022Z,5.80
2022-08-30T12:27:08.719Z,1.75
2022-08-30T12:32:47.501Z,2.85
2022-08-30T12:38:27.665Z,0.50
2022-08-30T12:43:42.376Z,1.85
2022-08-30T12:48:45.918Z,0.85
2022-08-30T12:53:53.741Z,0.82
2022-08-30T12:59:04.027Z,1.38
2022-08-30T13:04:24.550Z,1.30
2022-08-30T13:09:34.102Z,1.98
2022-08-30T13:14:43.552Z,1.77
2022-08-30T13:25:33.357Z,1.55
2022-08-30T13:30:43.424Z,0.60
2022-08-30T13:35:54.022Z,6.13
2022-08-30T13:41:34.721Z,1.58
2022-08-30T13:47:54.089Z,1.60
2022-08-30T13:53:09.804Z,6.63
2022-08-30T13:58:32.979Z,2.47
2022-08-30T14:09:08.102Z,1.15
2022-08-30T14:14:15.081Z,4.03
2022-08-30T14:19:19.536Z,1.05
2022-08-30T14:29:31.711Z,1.33
2022-08-30T14:34:35.725Z,1.50
2022-08-30T14:39:38.648Z,2.05
2022-08-30T14:44:55.241Z,3.22
2022-08-30T14:50:00.918Z,0.80
2022-08-30T14:55:08.988Z,0.68
2022-08-30T15:00:13.112Z,4.03
2022-08-30T15:05:17.015Z,5.07
2022-08-30T15:10:22.464Z,3.35
2022-08-30T15:15:28.872Z,1.75
2022-08-30T15:20:32.429Z,0.95
2022-08-30T15:25:35.890Z,0.80
2022-08-30T15:30:42.100Z,1.52
2022-08-30T15:35:45.971Z,2.75
2022-08-30T15:40:50.753Z,1.42
2022-08-30T15:45:55.534Z,1.30
2022-08-30T15:51:00.588Z,3.05
2022-08-30T15:56:03.339Z,4.72
2022-08-30T16:06:30.744Z,3.45
2022-08-30T16:11:34.286Z,2.40
2022-08-30T16:16:37.852Z,1.98
2022-08-30T16:21:43.506Z,2.05
2022-08-30T16:26:47.915Z,1.70
2022-08-30T16:31:50.348Z,1.25
2022-08-30T16:36:52.953Z,1.13
2022-08-30T16:41:55.740Z,1.17
2022-08-30T16:46:58.425Z,3.55
2022-08-30T16:52:00.797Z,3.70
2022-08-30T16:57:06.457Z,2.70
2022-08-30T17:02:08.939Z,1.50
2022-08-30T17:07:14.620Z,1.42
2022-08-30T17:12:19.229Z,2.17
2022-08-30T17:17:22.150Z,1.25
2022-08-30T17:22:28.937Z,3.28
2022-08-30T17:27:48.619Z,3.40
2022-08-30T17:34:11.598Z,3.47
2022-08-30T17:39:17.534Z,2.05
2022-08-30T17:44:25.808Z,1.92
2022-08-30T17:49:31.119Z,1.58
2022-08-30T17:54:41.044Z,1.95
2022-08-30T18:00:28.646Z,1.60
2022-08-30T18:11:16.327Z,2.08
2022-08-30T18:16:26.223Z,1.70
2022-08-30T18:21:40.743Z,2.35
2022-08-30T18:26:49.069Z,3.70
2022-08-30T18:31:53.659Z,4.57
2022-08-30T18:42:00.850Z,2.22
2022-08-30T18:47:07.835Z,1.40
2022-08-30T18:52:10.804Z,2.95
2022-08-30T18:57:14.214Z,1.63
2022-08-30T19:02:43.537Z,3.72
2022-08-30T19:08:34.179Z,3.90
2022-08-30T19:14:24.662Z,3.95
2022-08-30T19:27:21.339Z,2.08
2022-08-30T19:39:14.774Z,3.65
2022-08-30T19:57:41.615Z,3.13
2022-08-30T20:03:35.779Z,5.63
2022-08-30T20:09:29.508Z,2.88
2022-08-30T20:14:42.002Z,3.30
2022-08-30T20:19:59.561Z,3.42
2022-08-30T20:30:35.767Z,2.05
2022-08-30T20:35:52.749Z,1.45
2022-08-30T20:41:43.025Z,1.75
2022-08-30T20:58:32.047Z,2.17
2022-08-30T21:11:25.032Z,6.03
2022-08-30T21:28:57.752Z,19.75
2022-08-30T21:34:01.662Z,7.85
2022-08-30T21:44:28.190Z,18.55
2022-08-30T21:49:41.255Z,15.75
2022-08-30T21:55:05.664Z,7.33
2022-08-30T22:00:19.150Z,15.30
2022-08-30T22:06:04.232Z,38.47
2022-08-30T22:11:10.705Z,36.90
2022-08-30T22:16:20.484Z,30.50
2022-08-30T22:21:29.519Z,23.70
2022-08-30T22:26:53.025Z,8.68
2022-08-30T22:50:56.172Z,9.52
2022-08-30T22:57:04.600Z,2.95
2022-08-30T23:08:02.835Z,3.25
2022-08-30T23:13:28.643Z,2.53
2022-08-30T23:18:42.462Z,3.75
2022-08-30T23:24:07.877Z,4.55
2022-08-30T23:35:48.927Z,18.52
2022-08-30T23:41:15.353Z,26.80
2022-08-30T23:46:50.444Z,10.55
2022-08-30T23:52:21.394Z,4.97
2022-08-30T23:57:54.969Z,3.30
